Dayton, Nevada
Current Conditions -  °F | °C
As of 1:35 AM on Thursday 23 Oct 2014 (Local Time) from KCXP Reporting Station
Clear Clear  
Wind Chill: 46°   Ceiling: Unl
Heat Index: 46°   Visibility: 10mi
Dew Point: 27°   Wind: 0mph
Humidity: 46%   Direction: NA
Pressure: 30.12"   Gusts: NA
Location:  39.24°N, 119.6°W
Report Text: KCXP 230835Z AUTO 00000KT 10SM CLR 08/M03 A3012 RMK AO2
Loading
Personal Weather Stations






























Interactive Weather Map New forecast layout! Learn more

10-Day Weather Forecast

Advertisements
Track Severe Weather on mobile